NOZ7EU ENDU-ENGM
Flight info
| Callsign | NOZ7EU |
|---|---|
| Flight time | 1h 31m |
| Altitude | 36000 |
| Route | AMIMO DCT SOMUB/N0445F370 DCT INREX |
| Aircraft | B38M/M-SDE1FGHILORVWXY/HB1 |
Departure
| Time | 2026-05-07 15:43 |
|---|---|
| Airport | Bardufoss Airport (ENDU) |
Arrival
| Time | 2026-05-07 17:14 |
|---|---|
| Airport | Oslo-Gardermoen International Airport (ENGM) |
| Time | Latitude | Longitude | Altitude | Speed | Heading |
|---|---|---|---|---|---|
| 2026-05-07 15:10 | 69.05882 | 18.53960 | 259 ft | 0 kts | 343° |
| 2026-05-07 15:37 | 69.05883 | 18.53960 | 259 ft | 1 kts | 343° |
| 2026-05-07 15:37 | 69.05886 | 18.53949 | 259 ft | 1 kts | 302° |
| 2026-05-07 15:37 | 69.05878 | 18.53908 | 259 ft | 3 kts | 220° |
| 2026-05-07 15:37 | 69.05867 | 18.53911 | 259 ft | 2 kts | 154° |
| 2026-05-07 15:38 | 69.05844 | 18.53975 | 259 ft | 6 kts | 145° |
| 2026-05-07 15:38 | 69.05795 | 18.54025 | 259 ft | 9 kts | 167° |
| 2026-05-07 15:38 | 69.05726 | 18.54087 | 259 ft | 10 kts | 161° |
| 2026-05-07 15:38 | 69.05678 | 18.54206 | 259 ft | 10 kts | 110° |
| 2026-05-07 15:39 | 69.05649 | 18.54443 | 257 ft | 15 kts | 109° |
| 2026-05-07 15:39 | 69.05609 | 18.54770 | 253 ft | 20 kts | 109° |
| 2026-05-07 15:39 | 69.05558 | 18.55184 | 249 ft | 25 kts | 109° |
| 2026-05-07 15:39 | 69.05497 | 18.55680 | 243 ft | 29 kts | 109° |
| 2026-05-07 15:40 | 69.05442 | 18.56126 | 238 ft | 23 kts | 109° |
| 2026-05-07 15:40 | 69.05390 | 18.56550 | 233 ft | 16 kts | 109° |
| 2026-05-07 15:40 | 69.05364 | 18.56763 | 232 ft | 10 kts | 110° |
| 2026-05-07 15:40 | 69.05310 | 18.56817 | 229 ft | 11 kts | 195° |
| 2026-05-07 15:41 | 69.05257 | 18.56712 | 231 ft | 9 kts | 250° |
| 2026-05-07 15:41 | 69.05263 | 18.56570 | 234 ft | 0 kts | 289° |
| 2026-05-07 15:42 | 69.05275 | 18.56480 | 237 ft | 20 kts | 289° |
| 2026-05-07 15:42 | 69.05403 | 18.55439 | 245 ft | 90 kts | 289° |
| 2026-05-07 15:43 | 69.05672 | 18.53263 | 262 ft | 145 kts | 289° |
| 2026-05-07 15:43 | 69.06022 | 18.50496 | 740 ft | 153 kts | 290° |
| 2026-05-07 15:43 | 69.06381 | 18.47617 | 1311 ft | 162 kts | 287° |
| 2026-05-07 15:43 | 69.06751 | 18.44576 | 2041 ft | 165 kts | 288° |
| 2026-05-07 15:44 | 69.06991 | 18.42577 | 2598 ft | 165 kts | 287° |
| 2026-05-07 15:44 | 69.07369 | 18.39419 | 3200 ft | 178 kts | 288° |
| 2026-05-07 15:44 | 69.07791 | 18.35968 | 3675 ft | 201 kts | 288° |
| 2026-05-07 15:44 | 69.08257 | 18.32012 | 4129 ft | 225 kts | 283° |
| 2026-05-07 15:45 | 69.08432 | 18.27472 | 4695 ft | 245 kts | 266° |
| 2026-05-07 15:45 | 69.07895 | 18.22860 | 5428 ft | 254 kts | 238° |
| 2026-05-07 15:45 | 69.06964 | 18.18644 | 6405 ft | 258 kts | 241° |
| 2026-05-07 15:45 | 69.06012 | 18.14344 | 7216 ft | 262 kts | 232° |
| 2026-05-07 15:46 | 69.02932 | 18.08736 | 8897 ft | 271 kts | 210° |
| 2026-05-07 15:46 | 69.01264 | 18.06202 | 9770 ft | 275 kts | 210° |
| 2026-05-07 15:46 | 68.99564 | 18.03626 | 10445 ft | 283 kts | 210° |
| 2026-05-07 15:47 | 68.97776 | 18.00919 | 10807 ft | 301 kts | 210° |
| 2026-05-07 15:47 | 68.95905 | 17.98098 | 11405 ft | 311 kts | 210° |
| 2026-05-07 15:47 | 68.93993 | 17.95227 | 12276 ft | 313 kts | 210° |
| 2026-05-07 15:47 | 68.92062 | 17.92336 | 13114 ft | 317 kts | 210° |
| 2026-05-07 15:48 | 68.90109 | 17.89421 | 13972 ft | 321 kts | 210° |
| 2026-05-07 15:48 | 68.88129 | 17.86471 | 14767 ft | 325 kts | 210° |
| 2026-05-07 15:48 | 68.86131 | 17.83501 | 15589 ft | 328 kts | 210° |
| 2026-05-07 15:48 | 68.84106 | 17.80498 | 16421 ft | 332 kts | 210° |
| 2026-05-07 15:49 | 68.82061 | 17.77472 | 17235 ft | 336 kts | 210° |
| 2026-05-07 15:49 | 68.79988 | 17.74408 | 18032 ft | 340 kts | 210° |
| 2026-05-07 15:49 | 68.77894 | 17.71323 | 18752 ft | 343 kts | 209° |
| 2026-05-07 15:49 | 68.75774 | 17.68206 | 19451 ft | 346 kts | 209° |
| 2026-05-07 15:50 | 68.73636 | 17.65069 | 20124 ft | 349 kts | 209° |
| 2026-05-07 15:50 | 68.71482 | 17.61915 | 20778 ft | 353 kts | 208° |
| 2026-05-07 15:50 | 68.69464 | 17.58967 | 21380 ft | 356 kts | 208° |
| 2026-05-07 15:50 | 68.67262 | 17.55757 | 22023 ft | 360 kts | 208° |
| 2026-05-07 15:51 | 68.65042 | 17.52528 | 22645 ft | 363 kts | 208° |
| 2026-05-07 15:51 | 68.62792 | 17.49263 | 23274 ft | 367 kts | 207° |
| 2026-05-07 15:51 | 68.60530 | 17.45987 | 23841 ft | 370 kts | 207° |
| 2026-05-07 15:51 | 68.58240 | 17.42675 | 24321 ft | 374 kts | 207° |
| 2026-05-07 15:52 | 68.55934 | 17.39351 | 24821 ft | 377 kts | 207° |
| 2026-05-07 15:52 | 68.53634 | 17.36044 | 25287 ft | 380 kts | 208° |
| 2026-05-07 15:52 | 68.51252 | 17.32627 | 25757 ft | 383 kts | 208° |
| 2026-05-07 15:52 | 68.48912 | 17.29278 | 26229 ft | 386 kts | 208° |
| 2026-05-07 15:53 | 68.46495 | 17.25828 | 26693 ft | 389 kts | 208° |
| 2026-05-07 15:53 | 68.44082 | 17.22391 | 27128 ft | 393 kts | 208° |
| 2026-05-07 15:53 | 68.41654 | 17.18941 | 27573 ft | 396 kts | 208° |
| 2026-05-07 15:53 | 68.39234 | 17.15512 | 27991 ft | 399 kts | 208° |
| 2026-05-07 15:54 | 68.36759 | 17.12013 | 28393 ft | 403 kts | 208° |
| 2026-05-07 15:54 | 68.34266 | 17.08498 | 28786 ft | 406 kts | 208° |
| 2026-05-07 15:54 | 68.31746 | 17.04955 | 29189 ft | 409 kts | 208° |
| 2026-05-07 15:54 | 68.29208 | 17.01393 | 29573 ft | 413 kts | 208° |
| 2026-05-07 15:55 | 68.26652 | 16.97816 | 29943 ft | 416 kts | 208° |
| 2026-05-07 15:55 | 68.24070 | 16.94211 | 30276 ft | 419 kts | 208° |
| 2026-05-07 15:55 | 68.21469 | 16.90591 | 30575 ft | 422 kts | 208° |
| 2026-05-07 15:55 | 68.18849 | 16.86952 | 30880 ft | 425 kts | 208° |
| 2026-05-07 15:56 | 68.16215 | 16.83304 | 31167 ft | 428 kts | 208° |
| 2026-05-07 15:56 | 68.13557 | 16.79632 | 31458 ft | 431 kts | 208° |
| 2026-05-07 15:56 | 68.10888 | 16.75954 | 31744 ft | 433 kts | 208° |
| 2026-05-07 15:56 | 68.08195 | 16.72254 | 32045 ft | 436 kts | 208° |
| 2026-05-07 15:57 | 68.05492 | 16.68549 | 32325 ft | 438 kts | 208° |
| 2026-05-07 15:57 | 68.02762 | 16.64817 | 32593 ft | 441 kts | 208° |
| 2026-05-07 15:57 | 68.00023 | 16.61083 | 32868 ft | 444 kts | 208° |
| 2026-05-07 15:57 | 67.97266 | 16.57335 | 33211 ft | 445 kts | 208° |
| 2026-05-07 15:58 | 67.94513 | 16.53602 | 33583 ft | 445 kts | 208° |
| 2026-05-07 15:58 | 67.91755 | 16.49872 | 33952 ft | 445 kts | 208° |
| 2026-05-07 15:58 | 67.88991 | 16.46149 | 34270 ft | 445 kts | 207° |
| 2026-05-07 15:58 | 67.86090 | 16.43302 | 34562 ft | 447 kts | 195° |
| 2026-05-07 15:59 | 67.83071 | 16.41309 | 34851 ft | 447 kts | 196° |
| 2026-05-07 15:59 | 67.80055 | 16.39254 | 35102 ft | 448 kts | 196° |
| 2026-05-07 15:59 | 67.77029 | 16.37240 | 35396 ft | 448 kts | 196° |
| 2026-05-07 15:59 | 67.74010 | 16.35252 | 35687 ft | 448 kts | 196° |
| 2026-05-07 16:00 | 67.70983 | 16.33270 | 35965 ft | 448 kts | 196° |
| 2026-05-07 16:00 | 67.67951 | 16.31291 | 36075 ft | 450 kts | 196° |
| 2026-05-07 16:00 | 67.64917 | 16.29317 | 36070 ft | 448 kts | 196° |
| 2026-05-07 16:01 | 67.58874 | 16.25400 | 36082 ft | 447 kts | 196° |
| 2026-05-07 16:01 | 67.52833 | 16.21505 | 36077 ft | 447 kts | 196° |
| 2026-05-07 16:02 | 67.46789 | 16.17629 | 36077 ft | 447 kts | 196° |
| 2026-05-07 16:02 | 67.40748 | 16.13775 | 36078 ft | 447 kts | 196° |
| 2026-05-07 16:03 | 67.34710 | 16.09943 | 36081 ft | 447 kts | 196° |
| 2026-05-07 16:03 | 67.28670 | 16.06128 | 36079 ft | 447 kts | 196° |
| 2026-05-07 16:04 | 67.22674 | 16.02363 | 36085 ft | 447 kts | 196° |
| 2026-05-07 16:04 | 67.16632 | 15.98587 | 36090 ft | 446 kts | 196° |
| 2026-05-07 16:05 | 67.10597 | 15.94835 | 36082 ft | 446 kts | 196° |
| 2026-05-07 16:05 | 67.04555 | 15.91098 | 36080 ft | 446 kts | 196° |
| 2026-05-07 16:06 | 66.98517 | 15.87383 | 36081 ft | 446 kts | 196° |
| 2026-05-07 16:06 | 66.92477 | 15.83685 | 36078 ft | 446 kts | 196° |
| 2026-05-07 16:07 | 66.86438 | 15.80007 | 36086 ft | 446 kts | 196° |
| 2026-05-07 16:07 | 66.80389 | 15.76341 | 36082 ft | 446 kts | 196° |
| 2026-05-07 16:08 | 66.74347 | 15.72698 | 36083 ft | 446 kts | 196° |
| 2026-05-07 16:08 | 66.68311 | 15.69076 | 36083 ft | 446 kts | 196° |
| 2026-05-07 16:09 | 66.62265 | 15.65468 | 36080 ft | 446 kts | 196° |
| 2026-05-07 16:09 | 66.56226 | 15.61882 | 36084 ft | 446 kts | 196° |
| 2026-05-07 16:10 | 66.50183 | 15.58310 | 36085 ft | 446 kts | 196° |
| 2026-05-07 16:10 | 66.44181 | 15.54780 | 36082 ft | 446 kts | 196° |
| 2026-05-07 16:11 | 66.38138 | 15.51245 | 36082 ft | 446 kts | 196° |
| 2026-05-07 16:11 | 66.32118 | 15.47550 | 36078 ft | 443 kts | 202° |
| 2026-05-07 16:11 | 66.29387 | 15.44174 | 36088 ft | 436 kts | 216° |
| 2026-05-07 16:12 | 66.26804 | 15.40204 | 36083 ft | 439 kts | 212° |
| 2026-05-07 16:12 | 66.21485 | 15.32734 | 36091 ft | 440 kts | 212° |
| 2026-05-07 16:13 | 66.16150 | 15.25341 | 36083 ft | 439 kts | 212° |
| 2026-05-07 16:13 | 66.10818 | 15.17990 | 36086 ft | 438 kts | 212° |
| 2026-05-07 16:14 | 66.05491 | 15.10685 | 36081 ft | 438 kts | 212° |
| 2026-05-07 16:14 | 66.00202 | 15.03466 | 36077 ft | 438 kts | 212° |
| 2026-05-07 16:15 | 65.94879 | 14.96235 | 36074 ft | 437 kts | 212° |
| 2026-05-07 16:15 | 65.89549 | 14.89030 | 36079 ft | 437 kts | 212° |
| 2026-05-07 16:16 | 65.84220 | 14.81860 | 36076 ft | 437 kts | 212° |
| 2026-05-07 16:16 | 65.78890 | 14.74723 | 36075 ft | 437 kts | 212° |
| 2026-05-07 16:17 | 65.73559 | 14.67620 | 36074 ft | 437 kts | 211° |
| 2026-05-07 16:17 | 65.68230 | 14.60552 | 36086 ft | 436 kts | 211° |
| 2026-05-07 16:18 | 65.62897 | 14.53512 | 36088 ft | 436 kts | 211° |
| 2026-05-07 16:18 | 65.57567 | 14.46509 | 36098 ft | 436 kts | 211° |
| 2026-05-07 16:19 | 65.52236 | 14.39537 | 36094 ft | 436 kts | 211° |
| 2026-05-07 16:19 | 65.46901 | 14.32594 | 36101 ft | 436 kts | 211° |
| 2026-05-07 16:20 | 65.41567 | 14.25684 | 36109 ft | 435 kts | 211° |
| 2026-05-07 16:20 | 65.36237 | 14.18811 | 36104 ft | 435 kts | 211° |
| 2026-05-07 16:21 | 65.30908 | 14.11971 | 36114 ft | 435 kts | 211° |
| 2026-05-07 16:21 | 65.25576 | 14.05159 | 36115 ft | 434 kts | 211° |
| 2026-05-07 16:22 | 65.20245 | 13.98379 | 36117 ft | 434 kts | 211° |
| 2026-05-07 16:22 | 65.14914 | 13.91631 | 36120 ft | 434 kts | 211° |
| 2026-05-07 16:23 | 65.09583 | 13.84913 | 36123 ft | 434 kts | 211° |
| 2026-05-07 16:23 | 65.04253 | 13.78228 | 36115 ft | 433 kts | 211° |
| 2026-05-07 16:24 | 64.98925 | 13.71575 | 36119 ft | 433 kts | 211° |
| 2026-05-07 16:24 | 64.93595 | 13.64949 | 36121 ft | 433 kts | 211° |
| 2026-05-07 16:25 | 64.88263 | 13.58352 | 36120 ft | 433 kts | 211° |
| 2026-05-07 16:25 | 64.82930 | 13.51783 | 36127 ft | 433 kts | 211° |
| 2026-05-07 16:26 | 64.77591 | 13.45236 | 36126 ft | 433 kts | 211° |
| 2026-05-07 16:26 | 64.72288 | 13.38763 | 36128 ft | 432 kts | 211° |
| 2026-05-07 16:27 | 64.66954 | 13.32279 | 36129 ft | 432 kts | 211° |
| 2026-05-07 16:27 | 64.61615 | 13.25820 | 36132 ft | 432 kts | 211° |
| 2026-05-07 16:28 | 64.56277 | 13.19390 | 36131 ft | 432 kts | 211° |
| 2026-05-07 16:28 | 64.50931 | 13.12979 | 36131 ft | 432 kts | 211° |
| 2026-05-07 16:29 | 64.45588 | 13.06601 | 36133 ft | 432 kts | 211° |
| 2026-05-07 16:29 | 64.40246 | 13.00250 | 36135 ft | 432 kts | 211° |
| 2026-05-07 16:30 | 64.34904 | 12.93928 | 36136 ft | 431 kts | 211° |
| 2026-05-07 16:30 | 64.29564 | 12.87636 | 36127 ft | 431 kts | 211° |
| 2026-05-07 16:31 | 64.24222 | 12.81370 | 36109 ft | 431 kts | 211° |
| 2026-05-07 16:31 | 64.18875 | 12.75125 | 36102 ft | 431 kts | 211° |
| 2026-05-07 16:32 | 64.13539 | 12.68918 | 36082 ft | 430 kts | 211° |
| 2026-05-07 16:32 | 64.08196 | 12.62732 | 36075 ft | 430 kts | 211° |
| 2026-05-07 16:33 | 64.03723 | 12.57574 | 36073 ft | 430 kts | 210° |
| 2026-05-07 16:33 | 63.98389 | 12.51446 | 36073 ft | 429 kts | 210° |
| 2026-05-07 16:34 | 63.93050 | 12.45340 | 36088 ft | 429 kts | 210° |
| 2026-05-07 16:34 | 63.87747 | 12.39301 | 36100 ft | 429 kts | 210° |
| 2026-05-07 16:35 | 63.82409 | 12.33247 | 36119 ft | 429 kts | 210° |
| 2026-05-07 16:35 | 63.77076 | 12.27225 | 36128 ft | 428 kts | 210° |
| 2026-05-07 16:36 | 63.71736 | 12.21220 | 36147 ft | 428 kts | 210° |
| 2026-05-07 16:36 | 63.66407 | 12.15252 | 36155 ft | 428 kts | 210° |
| 2026-05-07 16:37 | 63.61072 | 12.09304 | 36151 ft | 427 kts | 210° |
| 2026-05-07 16:37 | 63.55745 | 12.03389 | 36153 ft | 427 kts | 210° |
| 2026-05-07 16:38 | 63.50420 | 11.97502 | 36154 ft | 427 kts | 210° |
| 2026-05-07 16:38 | 63.45099 | 11.91643 | 36154 ft | 426 kts | 210° |
| 2026-05-07 16:39 | 63.39774 | 11.85805 | 36156 ft | 426 kts | 210° |
| 2026-05-07 16:39 | 63.34212 | 11.81252 | 36162 ft | 433 kts | 193° |
| 2026-05-07 16:40 | 63.28152 | 11.80127 | 36160 ft | 440 kts | 185° |
| 2026-05-07 16:40 | 63.25089 | 11.80897 | 36140 ft | 449 kts | 171° |
| 2026-05-07 16:40 | 63.22084 | 11.82846 | 36154 ft | 450 kts | 171° |
| 2026-05-07 16:40 | 63.19027 | 11.83692 | 36160 ft | 439 kts | 184° |
| 2026-05-07 16:41 | 63.15958 | 11.84092 | 36149 ft | 443 kts | 180° |
| 2026-05-07 16:41 | 63.09817 | 11.85243 | 36151 ft | 443 kts | 180° |
| 2026-05-07 16:42 | 63.03672 | 11.86391 | 36143 ft | 442 kts | 180° |
| 2026-05-07 16:42 | 62.97539 | 11.87532 | 36144 ft | 442 kts | 180° |
| 2026-05-07 16:43 | 62.91413 | 11.88667 | 36136 ft | 441 kts | 180° |
| 2026-05-07 16:43 | 62.85294 | 11.89796 | 36134 ft | 441 kts | 180° |
| 2026-05-07 16:44 | 62.79177 | 11.90920 | 36125 ft | 441 kts | 180° |
| 2026-05-07 16:44 | 62.73108 | 11.92031 | 36115 ft | 440 kts | 180° |
| 2026-05-07 16:45 | 62.67008 | 11.93142 | 36102 ft | 440 kts | 180° |
| 2026-05-07 16:45 | 62.60914 | 11.94248 | 36104 ft | 440 kts | 180° |
| 2026-05-07 16:46 | 62.54822 | 11.95349 | 36102 ft | 439 kts | 181° |
| 2026-05-07 16:46 | 62.48735 | 11.96445 | 36101 ft | 438 kts | 181° |
| 2026-05-07 16:47 | 62.42663 | 11.97534 | 36099 ft | 438 kts | 181° |
| 2026-05-07 16:47 | 62.36589 | 11.98618 | 36112 ft | 438 kts | 181° |
| 2026-05-07 16:48 | 62.30527 | 11.99695 | 36101 ft | 437 kts | 181° |
| 2026-05-07 16:48 | 62.24531 | 12.00760 | 36101 ft | 421 kts | 181° |
| 2026-05-07 16:48 | 62.21645 | 12.01268 | 35861 ft | 412 kts | 181° |
| 2026-05-07 16:49 | 62.18797 | 12.01768 | 35363 ft | 410 kts | 181° |
| 2026-05-07 16:49 | 62.15955 | 12.02268 | 34868 ft | 409 kts | 181° |
| 2026-05-07 16:49 | 62.13123 | 12.02765 | 34384 ft | 408 kts | 182° |
| 2026-05-07 16:49 | 62.10297 | 12.03260 | 33853 ft | 408 kts | 182° |
| 2026-05-07 16:50 | 62.07470 | 12.03754 | 33276 ft | 406 kts | 182° |
| 2026-05-07 16:50 | 62.04668 | 12.04243 | 32789 ft | 403 kts | 182° |
| 2026-05-07 16:50 | 62.01887 | 12.04727 | 32330 ft | 399 kts | 183° |
| 2026-05-07 16:50 | 61.99134 | 12.05207 | 31873 ft | 395 kts | 183° |
| 2026-05-07 16:51 | 61.96407 | 12.05680 | 31418 ft | 392 kts | 184° |
| 2026-05-07 16:51 | 61.93697 | 12.06149 | 30969 ft | 388 kts | 184° |
| 2026-05-07 16:51 | 61.91016 | 12.06613 | 30547 ft | 385 kts | 184° |
| 2026-05-07 16:51 | 61.88359 | 12.07072 | 30099 ft | 382 kts | 185° |
| 2026-05-07 16:52 | 61.85723 | 12.07528 | 29588 ft | 378 kts | 185° |
| 2026-05-07 16:52 | 61.83115 | 12.07978 | 29165 ft | 373 kts | 185° |
| 2026-05-07 16:52 | 61.80549 | 12.08418 | 28776 ft | 368 kts | 185° |
| 2026-05-07 16:52 | 61.78017 | 12.08853 | 28374 ft | 363 kts | 185° |
| 2026-05-07 16:53 | 61.75552 | 12.09275 | 27989 ft | 357 kts | 186° |
| 2026-05-07 16:53 | 61.73088 | 12.09696 | 27612 ft | 352 kts | 186° |
| 2026-05-07 16:53 | 61.70665 | 12.10110 | 27252 ft | 348 kts | 186° |
| 2026-05-07 16:53 | 61.68261 | 12.10520 | 26880 ft | 344 kts | 186° |
| 2026-05-07 16:54 | 61.65885 | 12.10924 | 26512 ft | 341 kts | 186° |
| 2026-05-07 16:54 | 61.63533 | 12.11324 | 26162 ft | 337 kts | 186° |
| 2026-05-07 16:54 | 61.61204 | 12.11718 | 25804 ft | 334 kts | 187° |
| 2026-05-07 16:54 | 61.58921 | 12.11883 | 25390 ft | 321 kts | 198° |
| 2026-05-07 16:55 | 61.56837 | 12.10686 | 24957 ft | 305 kts | 212° |
| 2026-05-07 16:55 | 61.54866 | 12.09064 | 24554 ft | 305 kts | 210° |
| 2026-05-07 16:55 | 61.52876 | 12.07491 | 24160 ft | 305 kts | 210° |
| 2026-05-07 16:55 | 61.50895 | 12.05911 | 23743 ft | 304 kts | 210° |
| 2026-05-07 16:56 | 61.48926 | 12.04333 | 23302 ft | 302 kts | 210° |
| 2026-05-07 16:56 | 61.46966 | 12.02759 | 22830 ft | 301 kts | 210° |
| 2026-05-07 16:56 | 61.43061 | 11.99624 | 21912 ft | 300 kts | 210° |
| 2026-05-07 16:57 | 61.41115 | 11.98064 | 21456 ft | 300 kts | 209° |
| 2026-05-07 16:57 | 61.39169 | 11.96505 | 21002 ft | 299 kts | 209° |
| 2026-05-07 16:57 | 61.37228 | 11.94953 | 20562 ft | 298 kts | 209° |
| 2026-05-07 16:57 | 61.35290 | 11.93405 | 20133 ft | 298 kts | 208° |
| 2026-05-07 16:58 | 61.33354 | 11.91861 | 19701 ft | 298 kts | 208° |
| 2026-05-07 16:58 | 61.31420 | 11.90319 | 19275 ft | 298 kts | 208° |
| 2026-05-07 16:58 | 61.29472 | 11.88769 | 18833 ft | 305 kts | 208° |
| 2026-05-07 16:58 | 61.27471 | 11.87182 | 18445 ft | 311 kts | 207° |
| 2026-05-07 16:59 | 61.25435 | 11.85571 | 18044 ft | 314 kts | 207° |
| 2026-05-07 16:59 | 61.23387 | 11.83950 | 17621 ft | 315 kts | 207° |
| 2026-05-07 16:59 | 61.21337 | 11.82329 | 17213 ft | 315 kts | 206° |
| 2026-05-07 16:59 | 61.19291 | 11.80711 | 16818 ft | 315 kts | 206° |
| 2026-05-07 17:00 | 61.17248 | 11.79099 | 16417 ft | 314 kts | 206° |
| 2026-05-07 17:00 | 61.15202 | 11.77486 | 16020 ft | 315 kts | 205° |
| 2026-05-07 17:00 | 61.13161 | 11.75880 | 15635 ft | 314 kts | 205° |
| 2026-05-07 17:00 | 61.11113 | 11.74269 | 15208 ft | 315 kts | 205° |
| 2026-05-07 17:01 | 61.09071 | 11.72667 | 14841 ft | 314 kts | 204° |
| 2026-05-07 17:01 | 61.07024 | 11.71062 | 14480 ft | 315 kts | 204° |
| 2026-05-07 17:01 | 61.04972 | 11.69456 | 14128 ft | 316 kts | 204° |
| 2026-05-07 17:01 | 61.02918 | 11.67851 | 13750 ft | 316 kts | 203° |
| 2026-05-07 17:02 | 61.00866 | 11.66248 | 13341 ft | 315 kts | 203° |
| 2026-05-07 17:02 | 60.98814 | 11.64648 | 12943 ft | 315 kts | 203° |
| 2026-05-07 17:02 | 60.96770 | 11.63057 | 12555 ft | 314 kts | 203° |
| 2026-05-07 17:02 | 60.94739 | 11.61478 | 12222 ft | 311 kts | 203° |
| 2026-05-07 17:03 | 60.92721 | 11.59911 | 11958 ft | 310 kts | 202° |
| 2026-05-07 17:03 | 60.90704 | 11.58347 | 11703 ft | 309 kts | 202° |
| 2026-05-07 17:03 | 60.88718 | 11.56810 | 11453 ft | 308 kts | 202° |
| 2026-05-07 17:03 | 60.86689 | 11.55241 | 11198 ft | 307 kts | 202° |
| 2026-05-07 17:04 | 60.84715 | 11.53718 | 10947 ft | 306 kts | 202° |
| 2026-05-07 17:04 | 60.82724 | 11.52181 | 10702 ft | 306 kts | 202° |
| 2026-05-07 17:04 | 60.80737 | 11.50653 | 10462 ft | 305 kts | 202° |
| 2026-05-07 17:04 | 60.78748 | 11.49124 | 10213 ft | 305 kts | 202° |
| 2026-05-07 17:05 | 60.76768 | 11.47602 | 9957 ft | 304 kts | 202° |
| 2026-05-07 17:05 | 60.74783 | 11.46080 | 9578 ft | 305 kts | 201° |
| 2026-05-07 17:05 | 60.72801 | 11.44561 | 9166 ft | 304 kts | 202° |
| 2026-05-07 17:05 | 60.70818 | 11.43044 | 8770 ft | 304 kts | 201° |
| 2026-05-07 17:06 | 60.68847 | 11.41538 | 8383 ft | 303 kts | 202° |
| 2026-05-07 17:06 | 60.66875 | 11.40033 | 7979 ft | 302 kts | 202° |
| 2026-05-07 17:06 | 60.64908 | 11.38535 | 7612 ft | 301 kts | 202° |
| 2026-05-07 17:06 | 60.62952 | 11.37047 | 7223 ft | 300 kts | 202° |
| 2026-05-07 17:07 | 60.61002 | 11.35565 | 6880 ft | 299 kts | 201° |
| 2026-05-07 17:07 | 60.59058 | 11.34089 | 6514 ft | 298 kts | 202° |
| 2026-05-07 17:07 | 60.57123 | 11.32622 | 6141 ft | 296 kts | 202° |
| 2026-05-07 17:07 | 60.55206 | 11.31171 | 5827 ft | 292 kts | 202° |
| 2026-05-07 17:08 | 60.53314 | 11.29740 | 5564 ft | 287 kts | 202° |
| 2026-05-07 17:08 | 60.51473 | 11.28349 | 5426 ft | 278 kts | 202° |
| 2026-05-07 17:08 | 60.49697 | 11.27010 | 5295 ft | 268 kts | 202° |
| 2026-05-07 17:08 | 60.47974 | 11.25710 | 5176 ft | 259 kts | 202° |
| 2026-05-07 17:09 | 60.46306 | 11.24462 | 5071 ft | 252 kts | 202° |
| 2026-05-07 17:09 | 60.44679 | 11.23234 | 4928 ft | 247 kts | 202° |
| 2026-05-07 17:09 | 60.43089 | 11.22041 | 4783 ft | 239 kts | 202° |
| 2026-05-07 17:09 | 60.41554 | 11.20890 | 4648 ft | 231 kts | 202° |
| 2026-05-07 17:10 | 60.40067 | 11.19873 | 4573 ft | 220 kts | 198° |
| 2026-05-07 17:10 | 60.38611 | 11.19032 | 4378 ft | 216 kts | 198° |
| 2026-05-07 17:10 | 60.37169 | 11.18199 | 4088 ft | 216 kts | 198° |
| 2026-05-07 17:10 | 60.35741 | 11.17368 | 3816 ft | 210 kts | 198° |
| 2026-05-07 17:11 | 60.34377 | 11.16574 | 3538 ft | 199 kts | 198° |
| 2026-05-07 17:11 | 60.33075 | 11.15817 | 3260 ft | 190 kts | 198° |
| 2026-05-07 17:11 | 60.31828 | 11.15092 | 3002 ft | 184 kts | 199° |
| 2026-05-07 17:11 | 60.30611 | 11.14392 | 2748 ft | 179 kts | 198° |
| 2026-05-07 17:12 | 60.29468 | 11.13726 | 2504 ft | 163 kts | 199° |
| 2026-05-07 17:12 | 60.28389 | 11.13106 | 2266 ft | 159 kts | 198° |
| 2026-05-07 17:12 | 60.27325 | 11.12490 | 2016 ft | 159 kts | 199° |
| 2026-05-07 17:12 | 60.26308 | 11.11871 | 1797 ft | 149 kts | 199° |
| 2026-05-07 17:13 | 60.25321 | 11.11298 | 1508 ft | 147 kts | 198° |
| 2026-05-07 17:13 | 60.24335 | 11.10743 | 1295 ft | 148 kts | 197° |
| 2026-05-07 17:13 | 60.23358 | 11.10171 | 1078 ft | 149 kts | 197° |
| 2026-05-07 17:13 | 60.22362 | 11.09599 | 867 ft | 149 kts | 196° |
| 2026-05-07 17:14 | 60.21358 | 11.09021 | 696 ft | 146 kts | 196° |
| 2026-05-07 17:14 | 60.20488 | 11.08521 | 679 ft | 111 kts | 196° |
| 2026-05-07 17:14 | 60.19921 | 11.08193 | 677 ft | 41 kts | 196° |
| 2026-05-07 17:14 | 60.19703 | 11.08113 | 676 ft | 24 kts | 179° |
| 2026-05-07 17:15 | 60.19604 | 11.08165 | 675 ft | 13 kts | 142° |
| 2026-05-07 17:15 | 60.19567 | 11.08300 | 677 ft | 9 kts | 107° |
| 2026-05-07 17:15 | 60.19555 | 11.08390 | 680 ft | 3 kts | 105° |
| 2026-05-07 17:15 | 60.19555 | 11.08392 | 680 ft | 0 kts | 104° |
| 2026-05-07 17:16 | 60.19555 | 11.08393 | 680 ft | 2 kts | 104° |
| 2026-05-07 17:16 | 60.19548 | 11.08497 | 680 ft | 9 kts | 76° |
| 2026-05-07 17:16 | 60.19621 | 11.08583 | 679 ft | 17 kts | 15° |
| 2026-05-07 17:16 | 60.19734 | 11.08648 | 679 ft | 12 kts | 15° |
| 2026-05-07 17:17 | 60.19773 | 11.08771 | 679 ft | 16 kts | 104° |
| 2026-05-07 17:17 | 60.19738 | 11.08998 | 685 ft | 14 kts | 107° |
| 2026-05-07 17:17 | 60.19714 | 11.09167 | 686 ft | 13 kts | 103° |
| 2026-05-07 17:17 | 60.19687 | 11.09362 | 686 ft | 16 kts | 106° |
| 2026-05-07 17:18 | 60.19657 | 11.09569 | 685 ft | 15 kts | 106° |
| 2026-05-07 17:18 | 60.19616 | 11.09693 | 686 ft | 10 kts | 166° |
| 2026-05-07 17:18 | 60.19556 | 11.09668 | 687 ft | 7 kts | 195° |
| 2026-05-07 17:18 | 60.19534 | 11.09656 | 687 ft | 0 kts | 196° |
| 2026-05-07 17:19 | 60.19533 | 11.09655 | 687 ft | 0 kts | 196° |